sensor_id;sensor_type;location;lat;lon;timestamp;pressure;altitude;pressure_sealevel;temperature;humidity
7105;BME280;3594;42.152;24.714;2022-11-20T00:00:07;-24130.19;;;11.21;nan
7105;BME280;3594;42.152;24.714;2022-11-20T00:02:33;-24127.34;;;11.11;nan
7105;BME280;3594;42.152;24.714;2022-11-20T00:04:58;-24113.53;;;10.61;nan
7105;BME280;3594;42.152;24.714;2022-11-20T00:07:24;-24127.34;;;11.11;nan
7105;BME280;3594;42.152;24.714;2022-11-20T00:09:49;-24128.47;;;11.15;nan
7105;BME280;3594;42.152;24.714;2022-11-20T00:12:14;-24129.19;;;11.18;nan
7105;BME280;3594;42.152;24.714;2022-11-20T00:14:40;-24114.81;;;10.66;nan
7105;BME280;3594;42.152;24.714;2022-11-20T00:17:06;-24123.13;;;10.96;nan
7105;BME280;3594;42.152;24.714;2022-11-20T00:19:31;-24133.28;;;11.32;nan
7105;BME280;3594;42.152;24.714;2022-11-20T00:21:57;-24136.38;;;11.43;nan
7105;BME280;3594;42.152;24.714;2022-11-20T00:24:22;-24132.72;;;11.30;nan
7105;BME280;3594;42.152;24.714;2022-11-20T00:26:47;-24119.88;;;10.84;nan
7105;BME280;3594;42.152;24.714;2022-11-20T00:29:13;-24115.78;;;10.70;nan
7105;BME280;3594;42.152;24.714;2022-11-20T00:31:38;-24117.47;;;10.76;nan
7105;BME280;3594;42.152;24.714;2022-11-20T00:34:04;-24121.28;;;10.89;nan
7105;BME280;3594;42.152;24.714;2022-11-20T00:36:32;-24115.38;;;10.68;nan
7105;BME280;3594;42.152;24.714;2022-11-20T00:38:58;-24121.28;;;10.89;nan
7105;BME280;3594;42.152;24.714;2022-11-20T00:41:25;-24114.66;;;10.66;nan
7105;BME280;3594;42.152;24.714;2022-11-20T00:43:54;-24131.59;;;11.26;nan
7105;BME280;3594;42.152;24.714;2022-11-20T00:46:25;-24123.97;;;10.99;nan
7105;BME280;3594;42.152;24.714;2022-11-20T00:48:51;-24122.56;;;10.94;nan
7105;BME280;3594;42.152;24.714;2022-11-20T00:51:18;-24120.59;;;10.87;nan
7105;BME280;3594;42.152;24.714;2022-11-20T00:53:44;-24121.56;;;10.90;nan
7105;BME280;3594;42.152;24.714;2022-11-20T00:56:14;-24127.34;;;11.11;nan
7105;BME280;3594;42.152;24.714;2022-11-20T00:58:42;-24122.84;;;10.95;nan
7105;BME280;3594;42.152;24.714;2022-11-20T01:01:10;-24122.00;;;10.92;nan
7105;BME280;3594;42.152;24.714;2022-11-20T01:03:43;-24118.91;;;10.81;nan
7105;BME280;3594;42.152;24.714;2022-11-20T01:08:37;-24126.50;;;11.08;nan
7105;BME280;3594;42.152;24.714;2022-11-20T01:11:08;-24125.38;;;11.04;nan
7105;BME280;3594;42.152;24.714;2022-11-20T01:13:34;-24113.81;;;10.62;nan
7105;BME280;3594;42.152;24.714;2022-11-20T01:16:20;-24124.81;;;11.02;nan
7105;BME280;3594;42.152;24.714;2022-11-20T01:18:48;-24124.53;;;11.01;nan
7105;BME280;3594;42.152;24.714;2022-11-20T01:21:16;-24124.97;;;11.02;nan
7105;BME280;3594;42.152;24.714;2022-11-20T01:23:43;-24131.31;;;11.25;nan
7105;BME280;3594;42.152;24.714;2022-11-20T01:26:11;-24131.44;;;11.26;nan
7105;BME280;3594;42.152;24.714;2022-11-20T01:28:37;-24118.91;;;10.81;nan
7105;BME280;3594;42.152;24.714;2022-11-20T01:31:17;-24127.50;;;11.12;nan
7105;BME280;3594;42.152;24.714;2022-11-20T01:33:44;-24132.84;;;11.31;nan
7105;BME280;3594;42.152;24.714;2022-11-20T01:36:11;-24133.69;;;11.34;nan
7105;BME280;3594;42.152;24.714;2022-11-20T01:38:36;-24121.28;;;10.89;nan
7105;BME280;3594;42.152;24.714;2022-11-20T01:41:02;-24138.22;;;11.50;nan
7105;BME280;3594;42.152;24.714;2022-11-20T01:43:28;-24123.97;;;10.99;nan
7105;BME280;3594;42.152;24.714;2022-11-20T01:48:36;-24137.50;;;11.47;nan
7105;BME280;3594;42.152;24.714;2022-11-20T01:51:02;-24134.69;;;11.37;nan
7105;BME280;3594;42.152;24.714;2022-11-20T01:53:32;-24128.06;;;11.14;nan
7105;BME280;3594;42.152;24.714;2022-11-20T01:56:01;-24137.50;;;11.47;nan
7105;BME280;3594;42.152;24.714;2022-11-20T01:58:36;-24142.72;;;11.66;nan
7105;BME280;3594;42.152;24.714;2022-11-20T02:01:03;-24143.97;;;11.71;nan
7105;BME280;3594;42.152;24.714;2022-11-20T02:03:29;-24129.59;;;11.19;nan
7105;BME280;3594;42.152;24.714;2022-11-20T02:06:18;-24143.28;;;11.68;nan
7105;BME280;3594;42.152;24.714;2022-11-20T02:08:41;-24140.19;;;11.57;nan
7105;BME280;3594;42.152;24.714;2022-11-20T02:11:07;-24130.47;;;11.22;nan
7105;BME280;3594;42.152;24.714;2022-11-20T02:13:33;-24134.69;;;11.37;nan
7105;BME280;3594;42.152;24.714;2022-11-20T02:16:10;-24146.53;;;11.80;nan
7105;BME280;3594;42.152;24.714;2022-11-20T02:18:37;-24131.31;;;11.25;nan
7105;BME280;3594;42.152;24.714;2022-11-20T02:21:12;-24143.69;;;11.70;nan
7105;BME280;3594;42.152;24.714;2022-11-20T02:26:31;-24140.03;;;11.57;nan
7105;BME280;3594;42.152;24.714;2022-11-20T02:28:59;-24139.91;;;11.56;nan
7105;BME280;3594;42.152;24.714;2022-11-20T02:31:26;-24134.97;;;11.38;nan
7105;BME280;3594;42.152;24.714;2022-11-20T02:33:57;-24118.91;;;10.81;nan
7105;BME280;3594;42.152;24.714;2022-11-20T02:36:24;-24143.28;;;11.68;nan
7105;BME280;3594;42.152;24.714;2022-11-20T02:38:51;-24131.44;;;11.26;nan
7105;BME280;3594;42.152;24.714;2022-11-20T02:41:17;-24147.09;;;11.82;nan
7105;BME280;3594;42.152;24.714;2022-11-20T02:43:42;-24144.84;;;11.74;nan
7105;BME280;3594;42.152;24.714;2022-11-20T02:46:07;-24144.84;;;11.74;nan
7105;BME280;3594;42.152;24.714;2022-11-20T02:48:33;-24145.81;;;11.77;nan
7105;BME280;3594;42.152;24.714;2022-11-20T02:50:58;-24141.03;;;11.60;nan
7105;BME280;3594;42.152;24.714;2022-11-20T02:53:24;-24143.56;;;11.69;nan
7105;BME280;3594;42.152;24.714;2022-11-20T02:55:49;-24150.59;;;11.94;nan
7105;BME280;3594;42.152;24.714;2022-11-20T02:58:15;-24167.34;;;12.55;nan
7105;BME280;3594;42.152;24.714;2022-11-20T03:00:40;-24162.16;;;12.36;nan
7105;BME280;3594;42.152;24.714;2022-11-20T03:03:05;-24170.31;;;12.65;nan
7105;BME280;3594;42.152;24.714;2022-11-20T03:05:31;-24171.44;;;12.69;nan
7105;BME280;3594;42.152;24.714;2022-11-20T03:07:56;-24176.78;;;12.89;nan
7105;BME280;3594;42.152;24.714;2022-11-20T03:10:22;-24186.91;;;13.25;nan
7105;BME280;3594;42.152;24.714;2022-11-20T03:12:47;-24183.94;;;13.14;nan
7105;BME280;3594;42.152;24.714;2022-11-20T03:15:12;-24181.69;;;13.06;nan
7105;BME280;3594;42.152;24.714;2022-11-20T03:17:38;-24177.19;;;12.90;nan
7105;BME280;3594;42.152;24.714;2022-11-20T03:20:04;-24179.16;;;12.97;nan
7105;BME280;3594;42.152;24.714;2022-11-20T03:22:30;-24169.03;;;12.61;nan
7105;BME280;3594;42.152;24.714;2022-11-20T03:24:55;-24176.06;;;12.86;nan
7105;BME280;3594;42.152;24.714;2022-11-20T03:27:20;-24173.81;;;12.78;nan
7105;BME280;3594;42.152;24.714;2022-11-20T03:29:46;-24167.63;;;12.56;nan
7105;BME280;3594;42.152;24.714;2022-11-20T03:32:11;-24170.59;;;12.66;nan
7105;BME280;3594;42.152;24.714;2022-11-20T03:34:37;-24175.78;;;12.85;nan
7105;BME280;3594;42.152;24.714;2022-11-20T03:37:02;-24173.69;;;12.77;nan
7105;BME280;3594;42.152;24.714;2022-11-20T03:39:27;-24176.22;;;12.87;nan
7105;BME280;3594;42.152;24.714;2022-11-20T03:41:53;-24174.66;;;12.81;nan
7105;BME280;3594;42.152;24.714;2022-11-20T03:44:21;-24175.50;;;12.84;nan
7105;BME280;3594;42.152;24.714;2022-11-20T03:46:46;-24180.72;;;13.03;nan
7105;BME280;3594;42.152;24.714;2022-11-20T03:49:12;-24180.72;;;13.03;nan
7105;BME280;3594;42.152;24.714;2022-11-20T03:51:37;-24184.66;;;13.17;nan
7105;BME280;3594;42.152;24.714;2022-11-20T03:54:06;-24188.44;;;13.31;nan
7105;BME280;3594;42.152;24.714;2022-11-20T03:56:35;-24180.84;;;13.03;nan
7105;BME280;3594;42.152;24.714;2022-11-20T03:59:01;-24176.78;;;12.89;nan
7105;BME280;3594;42.152;24.714;2022-11-20T04:01:29;-24176.50;;;12.88;nan
7105;BME280;3594;42.152;24.714;2022-11-20T04:03:56;-24174.09;;;12.79;nan
7105;BME280;3594;42.152;24.714;2022-11-20T04:06:25;-24181.41;;;13.05;nan
7105;BME280;3594;42.152;24.714;2022-11-20T04:08:51;-24172.00;;;12.71;nan
7105;BME280;3594;42.152;24.714;2022-11-20T04:11:19;-24181.84;;;13.07;nan
7105;BME280;3594;42.152;24.714;2022-11-20T04:13:53;-24182.41;;;13.09;nan
7105;BME280;3594;42.152;24.714;2022-11-20T04:16:19;-24177.75;;;12.92;nan
7105;BME280;3594;42.152;24.714;2022-11-20T04:18:45;-24178.88;;;12.96;nan
7105;BME280;3594;42.152;24.714;2022-11-20T04:21:12;-24186.63;;;13.24;nan
7105;BME280;3594;42.152;24.714;2022-11-20T04:23:37;-24196.03;;;13.58;nan
7105;BME280;3594;42.152;24.714;2022-11-20T04:26:06;-24191.25;;;13.41;nan
7105;BME280;3594;42.152;24.714;2022-11-20T04:28:32;-24192.53;;;13.45;nan
7105;BME280;3594;42.152;24.714;2022-11-20T04:31:08;-24186.63;;;13.24;nan
7105;BME280;3594;42.152;24.714;2022-11-20T04:33:34;-24193.22;;;13.48;nan
7105;BME280;3594;42.152;24.714;2022-11-20T04:36:02;-24193.50;;;13.49;nan
7105;BME280;3594;42.152;24.714;2022-11-20T04:38:28;-24189.72;;;13.35;nan
7105;BME280;3594;42.152;24.714;2022-11-20T04:41:02;-24186.75;;;13.24;nan
7105;BME280;3594;42.152;24.714;2022-11-20T04:43:28;-24196.31;;;13.59;nan
7105;BME280;3594;42.152;24.714;2022-11-20T04:45:54;-24183.09;;;13.11;nan
7105;BME280;3594;42.152;24.714;2022-11-20T04:48:20;-24183.25;;;13.12;nan
7105;BME280;3594;42.152;24.714;2022-11-20T04:50:46;-24178.88;;;12.96;nan
7105;BME280;3594;42.152;24.714;2022-11-20T04:53:11;-24187.19;;;13.26;nan
7105;BME280;3594;42.152;24.714;2022-11-20T04:55:36;-24196.88;;;13.61;nan
7105;BME280;3594;42.152;24.714;2022-11-20T04:58:02;-24194.63;;;13.53;nan
7105;BME280;3594;42.152;24.714;2022-11-20T05:00:27;-24192.78;;;13.46;nan
7105;BME280;3594;42.152;24.714;2022-11-20T05:02:53;-24195.03;;;13.54;nan
7105;BME280;3594;42.152;24.714;2022-11-20T05:05:18;-24193.78;;;13.50;nan
7105;BME280;3594;42.152;24.714;2022-11-20T05:07:43;-24210.34;;;14.09;nan
7105;BME280;3594;42.152;24.714;2022-11-20T05:10:09;-24200.53;;;13.74;nan
7105;BME280;3594;42.152;24.714;2022-11-20T05:12:34;-24206.13;;;13.94;nan
7105;BME280;3594;42.152;24.714;2022-11-20T05:14:59;-24203.75;;;13.86;nan
7105;BME280;3594;42.152;24.714;2022-11-20T05:17:25;-24202.63;;;13.82;nan
7105;BME280;3594;42.152;24.714;2022-11-20T05:19:50;-24208.38;;;14.02;nan
7105;BME280;3594;42.152;24.714;2022-11-20T05:22:16;-24194.34;;;13.52;nan
7105;BME280;3594;42.152;24.714;2022-11-20T05:24:41;-24191.38;;;13.41;nan
7105;BME280;3594;42.152;24.714;2022-11-20T05:27:06;-24191.53;;;13.42;nan
7105;BME280;3594;42.152;24.714;2022-11-20T05:29:32;-24197.28;;;13.62;nan
7105;BME280;3594;42.152;24.714;2022-11-20T05:31:57;-24195.03;;;13.54;nan
7105;BME280;3594;42.152;24.714;2022-11-20T05:34:22;-24191.13;;;13.40;nan
7105;BME280;3594;42.152;24.714;2022-11-20T05:36:48;-24185.91;;;13.21;nan
7105;BME280;3594;42.152;24.714;2022-11-20T05:39:13;-24187.31;;;13.26;nan
7105;BME280;3594;42.152;24.714;2022-11-20T05:41:39;-24196.31;;;13.59;nan
7105;BME280;3594;42.152;24.714;2022-11-20T05:44:04;-24192.78;;;13.46;nan
7105;BME280;3594;42.152;24.714;2022-11-20T05:46:29;-24191.81;;;13.43;nan
7105;BME280;3594;42.152;24.714;2022-11-20T05:48:56;-24193.22;;;13.48;nan
7105;BME280;3594;42.152;24.714;2022-11-20T05:51:22;-24191.25;;;13.41;nan
7105;BME280;3594;42.152;24.714;2022-11-20T05:53:47;-24192.38;;;13.45;nan
7105;BME280;3594;42.152;24.714;2022-11-20T05:56:20;-24181.69;;;13.06;nan
7105;BME280;3594;42.152;24.714;2022-11-20T05:58:46;-24192.09;;;13.44;nan
7105;BME280;3594;42.152;24.714;2022-11-20T06:03:42;-24191.13;;;13.40;nan
7105;BME280;3594;42.152;24.714;2022-11-20T06:06:11;-24186.34;;;13.23;nan
7105;BME280;3594;42.152;24.714;2022-11-20T06:08:37;-24175.94;;;12.85;nan
7105;BME280;3594;42.152;24.714;2022-11-20T06:11:04;-24166.38;;;12.51;nan
7105;BME280;3594;42.152;24.714;2022-11-20T06:13:30;-24188.31;;;13.30;nan
7105;BME280;3594;42.152;24.714;2022-11-20T06:15:55;-24186.63;;;13.24;nan
7105;BME280;3594;42.152;24.714;2022-11-20T06:18:20;-24185.34;;;13.19;nan
7105;BME280;3594;42.152;24.714;2022-11-20T06:20:46;-24186.75;;;13.24;nan
7105;BME280;3594;42.152;24.714;2022-11-20T06:23:12;-24193.63;;;13.49;nan
7105;BME280;3594;42.152;24.714;2022-11-20T06:25:42;-24201.09;;;13.76;nan
7105;BME280;3594;42.152;24.714;2022-11-20T06:28:08;-24196.59;;;13.60;nan
7105;BME280;3594;42.152;24.714;2022-11-20T06:30:35;-24193.22;;;13.48;nan
7105;BME280;3594;42.152;24.714;2022-11-20T06:33:01;-24180.44;;;13.02;nan
7105;BME280;3594;42.152;24.714;2022-11-20T06:35:26;-24195.19;;;13.55;nan
7105;BME280;3594;42.152;24.714;2022-11-20T06:37:52;-24189.72;;;13.35;nan
7105;BME280;3594;42.152;24.714;2022-11-20T06:40:17;-24188.31;;;13.30;nan
7105;BME280;3594;42.152;24.714;2022-11-20T06:42:42;-24181.56;;;13.06;nan
7105;BME280;3594;42.152;24.714;2022-11-20T06:45:08;-24190.69;;;13.39;nan
7105;BME280;3594;42.152;24.714;2022-11-20T06:47:34;-24203.59;;;13.85;nan
7105;BME280;3594;42.152;24.714;2022-11-20T06:49:59;-24196.44;;;13.59;nan
7105;BME280;3594;42.152;24.714;2022-11-20T06:52:25;-24209.63;;;14.07;nan
7105;BME280;3594;42.152;24.714;2022-11-20T06:54:50;-24203.03;;;13.83;nan
7105;BME280;3594;42.152;24.714;2022-11-20T06:57:15;-24206.41;;;13.95;nan
7105;BME280;3594;42.152;24.714;2022-11-20T06:59:41;-24224.66;;;14.61;nan
7105;BME280;3594;42.152;24.714;2022-11-20T07:02:10;-24218.63;;;14.39;nan
7105;BME280;3594;42.152;24.714;2022-11-20T07:04:35;-24217.06;;;14.34;nan
7105;BME280;3594;42.152;24.714;2022-11-20T07:07:01;-24224.78;;;14.62;nan
7105;BME280;3594;42.152;24.714;2022-11-20T07:09:26;-24232.63;;;14.90;nan
7105;BME280;3594;42.152;24.714;2022-11-20T07:11:52;-24231.94;;;14.87;nan
7105;BME280;3594;42.152;24.714;2022-11-20T07:14:17;-24244.97;;;15.34;nan
7105;BME280;3594;42.152;24.714;2022-11-20T07:16:42;-24238.53;;;15.11;nan
7105;BME280;3594;42.152;24.714;2022-11-20T07:19:08;-24224.78;;;14.62;nan
7105;BME280;3594;42.152;24.714;2022-11-20T07:21:33;-24242.44;;;15.25;nan
7105;BME280;3594;42.152;24.714;2022-11-20T07:23:58;-24243.72;;;15.30;nan
7105;BME280;3594;42.152;24.714;2022-11-20T07:26:24;-24254.34;;;15.68;nan
7105;BME280;3594;42.152;24.714;2022-11-20T07:28:49;-24246.94;;;15.41;nan
7105;BME280;3594;42.152;24.714;2022-11-20T07:31:15;-24251.41;;;15.58;nan
7105;BME280;3594;42.152;24.714;2022-11-20T07:33:40;-24245.38;;;15.36;nan
7105;BME280;3594;42.152;24.714;2022-11-20T07:36:06;-24243.44;;;15.29;nan
7105;BME280;3594;42.152;24.714;2022-11-20T07:38:31;-24250.56;;;15.55;nan
7105;BME280;3594;42.152;24.714;2022-11-20T07:40:57;-24256.31;;;15.75;nan
7105;BME280;3594;42.152;24.714;2022-11-20T07:43:23;-24257.16;;;15.78;nan
7105;BME280;3594;42.152;24.714;2022-11-20T07:45:50;-24251.56;;;15.58;nan
7105;BME280;3594;42.152;24.714;2022-11-20T07:48:15;-24251.84;;;15.59;nan
7105;BME280;3594;42.152;24.714;2022-11-20T07:50:41;-24240.78;;;15.19;nan
7105;BME280;3594;42.152;24.714;2022-11-20T07:53:06;-24253.38;;;15.65;nan
7105;BME280;3594;42.152;24.714;2022-11-20T07:55:32;-24251.56;;;15.58;nan
7105;BME280;3594;42.152;24.714;2022-11-20T07:57:58;-24248.75;;;15.48;nan
7105;BME280;3594;42.152;24.714;2022-11-20T08:00:25;-24245.53;;;15.36;nan
7105;BME280;3594;42.152;24.714;2022-11-20T08:02:50;-24239.78;;;15.16;nan
7105;BME280;3594;42.152;24.714;2022-11-20T08:05:16;-24244.28;;;15.32;nan
7105;BME280;3594;42.152;24.714;2022-11-20T08:07:42;-24242.59;;;15.26;nan
7105;BME280;3594;42.152;24.714;2022-11-20T08:10:10;-24250.72;;;15.55;nan
7105;BME280;3594;42.152;24.714;2022-11-20T08:12:36;-24248.63;;;15.47;nan
7105;BME280;3594;42.152;24.714;2022-11-20T08:15:26;-24254.22;;;15.68;nan
7105;BME280;3594;42.152;24.714;2022-11-20T08:17:52;-24253.66;;;15.66;nan
7105;BME280;3594;42.152;24.714;2022-11-20T08:20:17;-24266.25;;;16.11;nan
7105;BME280;3594;42.152;24.714;2022-11-20T08:22:43;-24258.97;;;15.85;nan
7105;BME280;3594;42.152;24.714;2022-11-20T08:25:09;-24263.31;;;16.01;nan
7105;BME280;3594;42.152;24.714;2022-11-20T08:27:34;-24261.63;;;15.95;nan
7105;BME280;3594;42.152;24.714;2022-11-20T08:29:59;-24258.97;;;15.85;nan
7105;BME280;3594;42.152;24.714;2022-11-20T08:32:25;-24275.06;;;16.43;nan
7105;BME280;3594;42.152;24.714;2022-11-20T08:34:50;-24278.69;;;16.56;nan
7105;BME280;3594;42.152;24.714;2022-11-20T08:37:16;-24280.50;;;16.63;nan
7105;BME280;3594;42.152;24.714;2022-11-20T08:39:41;-24277.56;;;16.52;nan
7105;BME280;3594;42.152;24.714;2022-11-20T08:42:07;-24284.56;;;16.77;nan
7105;BME280;3594;42.152;24.714;2022-11-20T08:44:33;-24291.53;;;17.03;nan
7105;BME280;3594;42.152;24.714;2022-11-20T08:47:00;-24291.69;;;17.03;nan
7105;BME280;3594;42.152;24.714;2022-11-20T08:49:25;-24301.72;;;17.40;nan
7105;BME280;3594;42.152;24.714;2022-11-20T08:51:51;-24292.94;;;17.08;nan
7105;BME280;3594;42.152;24.714;2022-11-20T08:54:20;-24293.78;;;17.11;nan
7105;BME280;3594;42.152;24.714;2022-11-20T08:56:47;-24294.75;;;17.14;nan
7105;BME280;3594;42.152;24.714;2022-11-20T08:59:12;-24308.84;;;17.65;nan
7105;BME280;3594;42.152;24.714;2022-11-20T09:01:38;-24320.00;;;18.06;nan
7105;BME280;3594;42.152;24.714;2022-11-20T09:04:04;-24321.13;;;18.10;nan
7105;BME280;3594;42.152;24.714;2022-11-20T09:06:29;-24326.56;;;18.30;nan
7105;BME280;3594;42.152;24.714;2022-11-20T09:08:55;-24326.28;;;18.29;nan
7105;BME280;3594;42.152;24.714;2022-11-20T09:11:22;-24333.38;;;18.54;nan
7105;BME280;3594;42.152;24.714;2022-11-20T09:13:47;-24328.22;;;18.36;nan
7105;BME280;3594;42.152;24.714;2022-11-20T09:16:13;-24344.81;;;18.96;nan
7105;BME280;3594;42.152;24.714;2022-11-20T09:18:39;-24342.16;;;18.86;nan
7105;BME280;3594;42.152;24.714;2022-11-20T09:21:07;-24354.00;;;19.29;nan
7105;BME280;3594;42.152;24.714;2022-11-20T09:23:35;-24374.72;;;20.05;nan
7105;BME280;3594;42.152;24.714;2022-11-20T09:26:05;-24370.97;;;19.91;nan
7105;BME280;3594;42.152;24.714;2022-11-20T09:28:31;-24368.47;;;19.82;nan
7105;BME280;3594;42.152;24.714;2022-11-20T09:30:57;-24364.84;;;19.69;nan
7105;BME280;3594;42.152;24.714;2022-11-20T09:33:23;-24353.84;;;19.29;nan
7105;BME280;3594;42.152;24.714;2022-11-20T09:35:48;-24365.41;;;19.71;nan
7105;BME280;3594;42.152;24.714;2022-11-20T09:38:14;-24368.03;;;19.80;nan
7105;BME280;3594;42.152;24.714;2022-11-20T09:41:05;-24389.28;;;20.58;nan
7105;BME280;3594;42.152;24.714;2022-11-20T09:46:22;-24409.00;;;21.30;nan
7105;BME280;3594;42.152;24.714;2022-11-20T09:48:59;-24406.78;;;21.22;nan
7105;BME280;3594;42.152;24.714;2022-11-20T09:51:46;-24410.38;;;21.35;nan
7105;BME280;3594;42.152;24.714;2022-11-20T09:54:19;-24393.19;;;20.72;nan
7105;BME280;3594;42.152;24.714;2022-11-20T09:56:53;-24384.84;;;20.42;nan
7105;BME280;3594;42.152;24.714;2022-11-20T10:01:48;-24396.78;;;20.85;nan
7105;BME280;3594;42.152;24.714;2022-11-20T10:04:16;-24397.91;;;20.89;nan
7105;BME280;3594;42.152;24.714;2022-11-20T10:07:04;-24412.03;;;21.41;nan
7105;BME280;3594;42.152;24.714;2022-11-20T10:09:39;-24408.56;;;21.28;nan
7105;BME280;3594;42.152;24.714;2022-11-20T10:12:12;-24403.44;;;21.09;nan
7105;BME280;3594;42.152;24.714;2022-11-20T10:20:02;-24408.28;;;21.27;nan
7105;BME280;3594;42.152;24.714;2022-11-20T10:25:39;-24408.72;;;21.29;nan
7105;BME280;3594;42.152;24.714;2022-11-20T10:28:56;-24409.28;;;21.31;nan
7105;BME280;3594;42.152;24.714;2022-11-20T10:31:33;-24410.66;;;21.36;nan
7105;BME280;3594;42.152;24.714;2022-11-20T10:34:05;-24412.31;;;21.42;nan
7105;BME280;3594;42.152;24.714;2022-11-20T10:36:41;-24405.09;;;21.15;nan
7105;BME280;3594;42.152;24.714;2022-11-20T10:39:35;-24407.03;;;21.23;nan
7105;BME280;3594;42.152;24.714;2022-11-20T10:42:08;-24402.06;;;21.04;nan
7105;BME280;3594;42.152;24.714;2022-11-20T10:44:36;-24407.19;;;21.23;nan
7105;BME280;3594;42.152;24.714;2022-11-20T10:47:22;-24412.59;;;21.43;nan
7105;BME280;3594;42.152;24.714;2022-11-20T10:49:53;-24420.50;;;21.72;nan
7105;BME280;3594;42.152;24.714;2022-11-20T10:58:16;-24410.38;;;21.35;nan
7105;BME280;3594;42.152;24.714;2022-11-20T11:00:46;-24406.06;;;21.19;nan
7105;BME280;3594;42.152;24.714;2022-11-20T11:03:24;-24410.38;;;21.35;nan
7105;BME280;3594;42.152;24.714;2022-11-20T11:05:59;-24414.66;;;21.50;nan
7105;BME280;3594;42.152;24.714;2022-11-20T11:08:34;-24413.69;;;21.47;nan
7105;BME280;3594;42.152;24.714;2022-11-20T11:11:05;-24412.31;;;21.42;nan
7105;BME280;3594;42.152;24.714;2022-11-20T11:13:38;-24412.47;;;21.42;nan
7105;BME280;3594;42.152;24.714;2022-11-20T11:16:04;-24410.94;;;21.37;nan
7105;BME280;3594;42.152;24.714;2022-11-20T11:18:33;-24415.78;;;21.54;nan
7105;BME280;3594;42.152;24.714;2022-11-20T11:21:01;-24418.13;;;21.63;nan
7105;BME280;3594;42.152;24.714;2022-11-20T11:23:39;-24412.88;;;21.44;nan
7105;BME280;3594;42.152;24.714;2022-11-20T11:26:17;-24410.09;;;21.34;nan
7105;BME280;3594;42.152;24.714;2022-11-20T11:28:53;-24402.47;;;21.06;nan
7105;BME280;3594;42.152;24.714;2022-11-20T11:31:26;-24397.06;;;20.86;nan
7105;BME280;3594;42.152;24.714;2022-11-20T11:34:02;-24396.91;;;20.86;nan
7105;BME280;3594;42.152;24.714;2022-11-20T11:36:28;-24392.47;;;20.69;nan
7105;BME280;3594;42.152;24.714;2022-11-20T11:38:54;-24389.28;;;20.58;nan
7105;BME280;3594;42.152;24.714;2022-11-20T11:41:23;-24389.00;;;20.57;nan
7105;BME280;3594;42.152;24.714;2022-11-20T11:43:56;-24394.69;;;20.78;nan
7105;BME280;3594;42.152;24.714;2022-11-20T11:46:49;-24373.47;;;20.00;nan
7105;BME280;3594;42.152;24.714;2022-11-20T11:49:18;-24382.78;;;20.34;nan
7105;BME280;3594;42.152;24.714;2022-11-20T11:52:16;-24382.91;;;20.35;nan
7105;BME280;3594;42.152;24.714;2022-11-20T11:55:00;-24392.34;;;20.69;nan
7105;BME280;3594;42.152;24.714;2022-11-20T12:00:21;-24390.41;;;20.62;nan
7105;BME280;3594;42.152;24.714;2022-11-20T12:03:36;-24391.94;;;20.67;nan
7105;BME280;3594;42.152;24.714;2022-11-20T12:05:45;-24385.28;;;20.43;nan
7105;BME280;3594;42.152;24.714;2022-11-20T12:16:00;-24398.03;;;20.90;nan
7105;BME280;3594;42.152;24.714;2022-11-20T12:18:27;-24393.19;;;20.72;nan
7105;BME280;3594;42.152;24.714;2022-11-20T12:37:33;-24394.28;;;20.76;nan
7105;BME280;3594;42.152;24.714;2022-11-20T12:45:51;-24397.63;;;20.88;nan
7105;BME280;3594;42.152;24.714;2022-11-20T13:02:00;-24397.34;;;20.87;nan
7105;BME280;3594;42.152;24.714;2022-11-20T13:04:39;-24405.53;;;21.17;nan
7105;BME280;3594;42.152;24.714;2022-11-20T13:07:12;-24406.50;;;21.21;nan
7105;BME280;3594;42.152;24.714;2022-11-20T13:09:44;-24407.31;;;21.24;nan
7105;BME280;3594;42.152;24.714;2022-11-20T13:17:42;-24406.78;;;21.22;nan
7105;BME280;3594;42.152;24.714;2022-11-20T13:20:16;-24410.66;;;21.36;nan
7105;BME280;3594;42.152;24.714;2022-11-20T13:22:49;-24405.38;;;21.17;nan
7105;BME280;3594;42.152;24.714;2022-11-20T13:25:34;-24408.84;;;21.29;nan
7105;BME280;3594;42.152;24.714;2022-11-20T13:30:35;-24410.38;;;21.35;nan
7105;BME280;3594;42.152;24.714;2022-11-20T13:33:08;-24411.91;;;21.40;nan
7105;BME280;3594;42.152;24.714;2022-11-20T13:35:35;-24410.50;;;21.35;nan
7105;BME280;3594;42.152;24.714;2022-11-20T13:38:12;-24400.13;;;20.97;nan
7105;BME280;3594;42.152;24.714;2022-11-20T13:45:58;-24403.44;;;21.09;nan
7105;BME280;3594;42.152;24.714;2022-11-20T13:48:26;-24396.91;;;20.86;nan
7105;BME280;3594;42.152;24.714;2022-11-20T13:51:04;-24396.78;;;20.85;nan
7105;BME280;3594;42.152;24.714;2022-11-20T14:01:56;-24377.34;;;20.14;nan
7105;BME280;3594;42.152;24.714;2022-11-20T14:04:28;-24362.06;;;19.59;nan
7105;BME280;3594;42.152;24.714;2022-11-20T14:06:56;-24351.91;;;19.22;nan
7105;BME280;3594;42.152;24.714;2022-11-20T14:09:54;-24344.53;;;18.95;nan
7105;BME280;3594;42.152;24.714;2022-11-20T14:12:23;-24330.75;;;18.45;nan
7105;BME280;3594;42.152;24.714;2022-11-20T14:14:51;-24332.56;;;18.51;nan
7105;BME280;3594;42.152;24.714;2022-11-20T14:17:32;-24330.03;;;18.42;nan
7105;BME280;3594;42.152;24.714;2022-11-20T14:20:04;-24327.94;;;18.35;nan
7105;BME280;3594;42.152;24.714;2022-11-20T14:22:30;-24326.56;;;18.30;nan
7105;BME280;3594;42.152;24.714;2022-11-20T14:27:33;-24321.69;;;18.12;nan
7105;BME280;3594;42.152;24.714;2022-11-20T14:30:00;-24315.81;;;17.91;nan
7105;BME280;3594;42.152;24.714;2022-11-20T14:32:28;-24312.63;;;17.79;nan
7105;BME280;3594;42.152;24.714;2022-11-20T14:34:59;-24320.56;;;18.08;nan
7105;BME280;3594;42.152;24.714;2022-11-20T14:37:31;-24306.63;;;17.57;nan
7105;BME280;3594;42.152;24.714;2022-11-20T14:39:58;-24313.75;;;17.83;nan
7105;BME280;3594;42.152;24.714;2022-11-20T14:42:26;-24302.28;;;17.42;nan
7105;BME280;3594;42.152;24.714;2022-11-20T14:44:54;-24297.41;;;17.24;nan
7105;BME280;3594;42.152;24.714;2022-11-20T14:47:26;-24303.56;;;17.46;nan
7105;BME280;3594;42.152;24.714;2022-11-20T14:49:53;-24303.56;;;17.46;nan
7105;BME280;3594;42.152;24.714;2022-11-20T14:52:22;-24301.03;;;17.37;nan
7105;BME280;3594;42.152;24.714;2022-11-20T14:54:55;-24290.72;;;17.00;nan
7105;BME280;3594;42.152;24.714;2022-11-20T14:59:49;-24296.00;;;17.19;nan
7105;BME280;3594;42.152;24.714;2022-11-20T15:02:14;-24290.44;;;16.99;nan
7105;BME280;3594;42.152;24.714;2022-11-20T15:04:50;-24298.09;;;17.27;nan
7105;BME280;3594;42.152;24.714;2022-11-20T15:07:31;-24290.84;;;17.00;nan
7105;BME280;3594;42.152;24.714;2022-11-20T15:10:07;-24288.47;;;16.92;nan
7105;BME280;3594;42.152;24.714;2022-11-20T15:12:37;-24289.44;;;16.95;nan